Time;durP1;ratioP1;P1;durP2;ratioP2;P2;SDS_P1;SDS_P2;PMS_P1;PMS_P2;Temp;Humidity;BMP_temperature;BMP_pressure;BME280_temperature;BME280_humidity;BME280_pressure;Samples;Min_cycle;Max_cycle;Signal;HPM_P1;HPM_P2
2023/12/09 00:00:48;;;;;;;0.30;0.30;;;1.60;99.90;;;;;;5069096;28;20169;-70
2023/12/09 00:03:13;;;;;;;0.30;0.30;;;1.60;99.90;;;;;;5068747;28;20338;-70
2023/12/09 00:05:39;;;;;;;0.30;0.20;;;1.60;99.90;;;;;;5068984;28;20820;-72
2023/12/09 00:08:05;;;;;;;0.30;0.30;;;1.60;99.90;;;;;;5068805;28;20193;-70
2023/12/09 00:10:30;;;;;;;0.30;0.30;;;1.50;99.90;;;;;;5068543;28;20177;-72
2023/12/09 00:12:56;;;;;;;0.30;0.20;;;1.60;99.90;;;;;;5068006;28;20196;-74
2023/12/09 00:15:22;;;;;;;0.30;0.20;;;1.60;99.90;;;;;;5069094;28;20441;-74
2023/12/09 00:17:47;;;;;;;0.30;0.30;;;1.60;99.90;;;;;;5069297;28;20221;-70
2023/12/09 00:20:13;;;;;;;0.30;0.30;;;1.60;99.90;;;;;;5069047;28;20715;-71
2023/12/09 00:22:39;;;;;;;0.30;0.30;;;1.60;99.90;;;;;;5069283;28;20209;-70
2023/12/09 00:25:06;;;;;;;0.30;0.20;;;1.60;99.90;;;;;;5068974;28;20684;-70
2023/12/09 00:27:32;;;;;;;0.30;0.30;;;1.60;99.90;;;;;;5069225;28;20410;-70
2023/12/09 00:29:57;;;;;;;0.30;0.20;;;1.50;99.90;;;;;;5068589;28;20169;-71
2023/12/09 00:32:23;;;;;;;0.30;0.30;;;1.50;99.90;;;;;;5069122;28;20181;-70
2023/12/09 00:34:48;;;;;;;0.30;0.30;;;1.50;99.90;;;;;;5067332;28;20229;-70
2023/12/09 00:37:14;;;;;;;0.30;0.30;;;1.50;99.90;;;;;;5068963;28;20180;-70
2023/12/09 00:39:40;;;;;;;0.30;0.30;;;1.50;99.90;;;;;;5068840;28;20558;-71
2023/12/09 00:42:05;;;;;;;0.30;0.30;;;1.50;99.90;;;;;;5068825;28;20232;-74
2023/12/09 00:44:31;;;;;;;0.30;0.20;;;1.50;99.90;;;;;;5068810;28;20197;-74
2023/12/09 00:46:57;;;;;;;0.30;0.30;;;1.50;99.90;;;;;;5069099;28;20181;-74
2023/12/09 00:49:22;;;;;;;0.30;0.30;;;1.50;99.90;;;;;;5071413;28;20196;-71
2023/12/09 00:51:48;;;;;;;0.30;0.20;;;1.50;99.90;;;;;;5072131;28;20451;-70
2023/12/09 00:54:14;;;;;;;0.30;0.20;;;1.50;99.90;;;;;;5072502;28;20421;-74
2023/12/09 00:56:39;;;;;;;0.30;0.30;;;1.40;99.90;;;;;;5070816;28;20879;-71
2023/12/09 00:59:05;;;;;;;0.30;0.20;;;1.40;99.90;;;;;;5072568;28;20193;-70
2023/12/09 01:01:33;;;;;;;0.30;0.27;;;1.40;99.90;;;;;;5072089;28;20165;-74
2023/12/09 01:04:00;;;;;;;0.30;0.20;;;1.40;99.90;;;;;;5071801;28;20519;-70
2023/12/09 01:06:26;;;;;;;0.30;0.20;;;1.40;99.90;;;;;;5071920;28;20169;-70
2023/12/09 01:08:52;;;;;;;0.30;0.30;;;1.40;99.90;;;;;;5070650;28;20262;-70
2023/12/09 01:11:18;;;;;;;0.30;0.20;;;1.40;99.90;;;;;;5069973;28;20169;-74
2023/12/09 01:13:43;;;;;;;0.30;0.30;;;1.50;99.90;;;;;;5071802;28;20440;-70
2023/12/09 01:16:09;;;;;;;2.37;2.27;;;1.50;99.90;;;;;;5071964;28;20228;-74
2023/12/09 01:18:35;;;;;;;0.30;0.20;;;1.50;99.90;;;;;;5071873;28;20197;-70
2023/12/09 01:21:00;;;;;;;0.30;0.30;;;1.50;99.90;;;;;;5072022;28;20659;-70
2023/12/09 01:23:26;;;;;;;0.30;0.20;;;1.50;99.90;;;;;;5071992;28;20588;-74
2023/12/09 01:25:52;;;;;;;0.30;0.30;;;1.50;99.90;;;;;;5071570;28;20177;-73
2023/12/09 01:28:18;;;;;;;0.30;0.30;;;1.50;99.90;;;;;;5071714;28;20204;-74
2023/12/09 01:30:43;;;;;;;0.30;0.30;;;1.50;99.90;;;;;;5071516;28;20195;-70
2023/12/09 01:33:09;;;;;;;0.30;0.30;;;1.50;99.90;;;;;;5070456;28;20288;-70
2023/12/09 01:35:35;;;;;;;0.30;0.30;;;1.40;99.90;;;;;;5070044;28;20188;-74
2023/12/09 01:38:00;;;;;;;0.30;0.30;;;1.40;99.90;;;;;;5071563;28;20417;-73
2023/12/09 01:40:26;;;;;;;0.30;0.30;;;1.50;99.90;;;;;;5071799;28;20238;-74
2023/12/09 01:42:51;;;;;;;0.30;0.30;;;1.50;99.90;;;;;;5071731;28;20220;-70
2023/12/09 01:45:17;;;;;;;0.30;0.30;;;1.40;99.90;;;;;;5070066;28;20230;-70
2023/12/09 01:47:43;;;;;;;0.30;0.30;;;1.40;99.90;;;;;;5071376;28;20369;-74
2023/12/09 01:50:10;;;;;;;0.30;0.30;;;1.40;99.90;;;;;;5071133;28;20208;-70
2023/12/09 01:52:37;;;;;;;0.30;0.30;;;1.40;99.90;;;;;;5071261;28;20196;-70
2023/12/09 01:55:03;;;;;;;0.30;0.30;;;1.40;99.90;;;;;;5071026;28;20169;-74
2023/12/09 01:57:29;;;;;;;0.30;0.30;;;1.40;99.90;;;;;;5070989;28;20177;-71
2023/12/09 01:59:55;;;;;;;0.30;0.30;;;1.40;99.90;;;;;;5070428;28;20194;-74
2023/12/09 02:02:21;;;;;;;0.30;0.30;;;1.40;99.90;;;;;;5071161;28;20713;-74
2023/12/09 02:04:47;;;;;;;0.30;0.30;;;1.50;99.90;;;;;;5070031;28;20201;-70
2023/12/09 02:07:13;;;;;;;0.30;0.30;;;1.50;99.90;;;;;;5070772;28;20184;-70
2023/12/09 02:09:42;;;;;;;0.30;0.30;;;1.50;99.90;;;;;;5070650;28;20670;-73
2023/12/09 02:12:17;;;;;;;0.30;0.30;;;1.50;99.90;;;;;;5070152;28;20174;-74
2023/12/09 02:14:52;;;;;;;0.30;0.30;;;1.50;99.90;;;;;;5070582;28;20185;-74
2023/12/09 02:17:24;;;;;;;0.30;0.20;;;1.50;99.90;;;;;;5070697;28;20713;-71
2023/12/09 02:19:51;;;;;;;0.30;0.20;;;1.50;99.90;;;;;;5069230;28;20713;-70
2023/12/09 02:22:16;;;;;;;0.30;0.30;;;1.50;99.90;;;;;;5070734;28;20710;-74
2023/12/09 02:24:42;;;;;;;0.30;0.30;;;1.50;99.90;;;;;;5068801;28;20292;-74
2023/12/09 02:27:14;;;;;;;0.30;0.20;;;1.50;99.90;;;;;;5069100;28;20177;-74
2023/12/09 02:29:56;;;;;;;0.30;0.30;;;1.50;99.90;;;;;;5070516;28;20326;-74
2023/12/09 02:32:25;;;;;;;0.30;0.30;;;1.50;99.90;;;;;;5069217;28;20646;-71
2023/12/09 02:34:53;;;;;;;0.30;0.20;;;1.50;99.90;;;;;;5070052;28;20538;-74
2023/12/09 02:37:21;;;;;;;0.30;0.30;;;1.50;99.90;;;;;;5070558;28;20687;-71
2023/12/09 02:39:47;;;;;;;0.30;0.20;;;1.50;99.90;;;;;;5070023;28;20205;-70
2023/12/09 02:42:14;;;;;;;0.30;0.30;;;1.50;99.90;;;;;;5070357;28;20646;-74
2023/12/09 02:44:42;;;;;;;0.30;0.20;;;1.50;99.90;;;;;;5069965;28;20578;-74
2023/12/09 02:47:14;;;;;;;0.30;0.20;;;1.50;99.90;;;;;;5070242;28;20173;-74
2023/12/09 02:49:40;;;;;;;0.30;0.20;;;1.50;99.90;;;;;;5070116;28;20666;-74
2023/12/09 02:52:06;;;;;;;0.30;0.30;;;1.50;99.90;;;;;;5070144;28;20169;-70
2023/12/09 02:54:31;;;;;;;0.30;0.20;;;1.50;99.90;;;;;;5069780;28;20681;-74
2023/12/09 02:56:57;;;;;;;0.30;0.20;;;1.50;99.90;;;;;;5069899;28;20369;-74
2023/12/09 02:59:23;;;;;;;0.30;0.20;;;1.40;99.90;;;;;;5069807;28;20204;-74
2023/12/09 03:01:48;;;;;;;0.30;0.30;;;1.40;99.90;;;;;;5069721;28;20352;-74
2023/12/09 03:04:14;;;;;;;0.30;0.20;;;1.40;99.90;;;;;;5068526;28;20315;-74
2023/12/09 03:06:39;;;;;;;0.30;0.27;;;1.50;99.90;;;;;;5067424;28;20187;-73
2023/12/09 03:09:05;;;;;;;0.30;0.30;;;1.50;99.90;;;;;;5069550;28;20247;-74
2023/12/09 03:11:31;;;;;;;0.30;0.20;;;1.50;99.90;;;;;;5069104;28;20542;-70
2023/12/09 03:13:56;;;;;;;0.30;0.30;;;1.50;99.90;;;;;;5070042;28;20193;-70
2023/12/09 03:16:22;;;;;;;0.30;0.30;;;1.50;99.90;;;;;;5068636;28;20260;-70
2023/12/09 03:18:47;;;;;;;0.30;0.30;;;1.50;99.90;;;;;;5069563;28;20232;-73
2023/12/09 03:21:15;;;;;;;0.30;0.30;;;1.50;99.90;;;;;;5069871;28;20690;-70
2023/12/09 03:23:44;;;;;;;0.30;0.20;;;1.50;99.90;;;;;;5068605;28;20758;-74
2023/12/09 03:26:17;;;;;;;0.30;0.20;;;1.50;99.90;;;;;;5085210;28;20196;-70
2023/12/09 03:28:43;;;;;;;0.30;0.30;;;1.50;99.90;;;;;;5069978;28;20246;-71
2023/12/09 03:31:14;;;;;;;0.30;0.20;;;1.60;99.90;;;;;;5068244;28;20548;-74
2023/12/09 03:33:40;;;;;;;0.30;0.20;;;1.50;99.90;;;;;;5069906;28;20212;-70
2023/12/09 03:36:08;;;;;;;0.30;0.20;;;1.50;99.90;;;;;;5067986;28;20550;-70
2023/12/09 03:38:34;;;;;;;0.30;0.20;;;1.50;99.90;;;;;;5068343;28;20200;-71
2023/12/09 03:41:02;;;;;;;0.30;0.30;;;1.50;99.90;;;;;;5069432;28;20183;-74
2023/12/09 03:43:27;;;;;;;0.30;0.20;;;1.50;99.90;;;;;;5069822;28;20213;-73
2023/12/09 03:45:53;;;;;;;0.30;0.20;;;1.50;99.90;;;;;;5069545;28;20192;-70
2023/12/09 03:48:18;;;;;;;0.30;0.30;;;1.50;99.90;;;;;;5069521;28;20331;-74
2023/12/09 03:50:44;;;;;;;0.30;0.20;;;1.50;99.90;;;;;;5067929;28;20169;-74
2023/12/09 03:53:09;;;;;;;0.30;0.20;;;1.50;99.90;;;;;;5069428;28;20598;-73
2023/12/09 03:55:35;;;;;;;0.30;0.20;;;1.50;99.90;;;;;;5067665;28;20181;-70
2023/12/09 03:58:00;;;;;;;0.30;0.30;;;1.50;99.90;;;;;;5069428;28;20258;-70
2023/12/09 04:00:26;;;;;;;0.30;0.20;;;1.50;99.90;;;;;;5069415;28;20177;-74
2023/12/09 04:02:52;;;;;;;0.30;0.20;;;1.50;99.90;;;;;;5069296;28;20270;-74
2023/12/09 04:05:17;;;;;;;0.30;0.20;;;1.50;99.90;;;;;;5068976;28;20188;-72
2023/12/09 04:07:43;;;;;;;0.30;0.20;;;1.50;99.90;;;;;;5067476;28;20291;-74
2023/12/09 04:10:11;;;;;;;0.30;0.20;;;1.50;99.90;;;;;;5069316;28;20169;-70
2023/12/09 04:12:37;;;;;;;0.30;0.30;;;1.50;99.90;;;;;;5069168;28;20177;-71
2023/12/09 04:15:03;;;;;;;0.30;0.20;;;1.50;99.90;;;;;;5069054;28;20181;-70
2023/12/09 04:17:29;;;;;;;0.30;0.30;;;1.50;99.90;;;;;;5067750;28;20228;-70
2023/12/09 04:19:54;;;;;;;0.30;0.20;;;1.50;99.90;;;;;;5067525;28;20822;-70
2023/12/09 04:22:20;;;;;;;0.30;0.20;;;1.50;99.90;;;;;;5070293;28;20200;-71
2023/12/09 04:24:45;;;;;;;0.30;0.20;;;1.50;99.90;;;;;;5072481;28;20205;-70
2023/12/09 04:27:12;;;;;;;0.30;0.20;;;1.50;99.90;;;;;;5071365;28;20262;-71
2023/12/09 04:29:38;;;;;;;0.30;0.20;;;1.50;99.90;;;;;;5072620;28;20688;-70
2023/12/09 04:32:04;;;;;;;0.30;0.20;;;1.50;99.90;;;;;;5072788;28;20208;-74
2023/12/09 04:34:29;;;;;;;0.30;0.30;;;1.50;99.90;;;;;;5071407;28;20205;-70
2023/12/09 04:36:55;;;;;;;0.30;0.30;;;1.50;99.90;;;;;;5072346;28;20158;-74
2023/12/09 04:39:20;;;;;;;0.37;0.37;;;1.50;99.90;;;;;;5072642;28;20243;-74
2023/12/09 04:41:47;;;;;;;0.30;0.20;;;1.50;99.90;;;;;;5072208;28;20177;-72
2023/12/09 04:44:12;;;;;;;0.30;0.20;;;1.50;99.90;;;;;;5072516;28;20216;-74
2023/12/09 04:46:38;;;;;;;0.30;0.30;;;1.60;99.90;;;;;;5072374;28;20246;-74
2023/12/09 04:49:04;;;;;;;0.30;0.20;;;1.60;99.90;;;;;;5072877;28;20677;-70
2023/12/09 04:51:29;;;;;;;0.30;0.20;;;1.60;99.90;;;;;;5072137;28;20652;-72
2023/12/09 04:53:55;;;;;;;0.30;0.20;;;1.60;99.90;;;;;;5071097;28;20193;-70
2023/12/09 04:56:20;;;;;;;11.90;11.50;;;1.60;99.90;;;;;;5072200;28;20606;-70
2023/12/09 04:58:46;;;;;;;0.30;0.20;;;1.60;99.90;;;;;;5072502;28;20562;-74
2023/12/09 05:01:12;;;;;;;0.30;0.20;;;1.60;99.90;;;;;;5072102;28;20192;-71
2023/12/09 05:03:37;;;;;;;0.30;0.20;;;1.70;99.90;;;;;;5072341;28;20224;-71
2023/12/09 05:06:04;;;;;;;0.30;0.20;;;1.70;99.90;;;;;;5071321;28;20169;-72
2023/12/09 05:08:30;;;;;;;0.30;0.30;;;1.70;99.90;;;;;;5071032;28;20688;-74
2023/12/09 05:10:56;;;;;;;0.30;0.20;;;1.70;99.90;;;;;;5071891;28;20264;-74
2023/12/09 05:13:21;;;;;;;0.30;0.20;;;1.70;99.90;;;;;;5070832;28;20455;-74
2023/12/09 05:15:48;;;;;;;0.30;0.20;;;1.70;99.90;;;;;;5073311;28;20420;-70
2023/12/09 05:18:14;;;;;;;0.30;0.25;;;1.80;99.90;;;;;;5070628;28;20200;-74
2023/12/09 05:20:39;;;;;;;0.30;0.30;;;1.80;99.90;;;;;;5069945;28;20184;-71
2023/12/09 05:23:06;;;;;;;0.30;0.20;;;1.80;99.90;;;;;;5071264;28;20953;-73
2023/12/09 05:25:32;;;;;;;0.30;0.20;;;1.80;99.90;;;;;;5071599;28;20177;-71
2023/12/09 05:27:58;;;;;;;0.30;0.20;;;1.80;99.90;;;;;;5070386;28;20197;-73
2023/12/09 05:30:23;;;;;;;0.30;0.20;;;1.80;99.90;;;;;;5072113;28;20377;-74
2023/12/09 05:32:49;;;;;;;0.30;0.20;;;1.90;99.90;;;;;;5071687;28;20736;-70
2023/12/09 05:35:15;;;;;;;0.30;0.20;;;1.90;99.90;;;;;;5069624;28;20192;-74
2023/12/09 05:37:40;;;;;;;0.30;0.20;;;1.90;99.90;;;;;;5071339;28;20173;-70
2023/12/09 05:40:07;;;;;;;0.30;0.30;;;1.90;99.90;;;;;;5071231;28;20180;-70
2023/12/09 05:42:33;;;;;;;0.30;0.20;;;1.90;99.90;;;;;;5070056;28;20173;-74
2023/12/09 05:44:59;;;;;;;0.30;0.20;;;1.90;99.90;;;;;;5070992;28;20177;-74
2023/12/09 05:47:25;;;;;;;0.30;0.20;;;1.90;99.90;;;;;;5071696;28;20618;-74
2023/12/09 05:49:50;;;;;;;1.43;1.43;;;1.90;99.90;;;;;;5069740;28;20204;-74
2023/12/09 05:52:17;;;;;;;0.30;0.30;;;1.90;99.90;;;;;;5069905;28;20389;-73
2023/12/09 05:54:43;;;;;;;0.30;0.20;;;1.90;99.90;;;;;;5071158;28;20782;-70
2023/12/09 05:57:08;;;;;;;0.30;0.20;;;1.90;99.90;;;;;;5071125;28;20176;-71
2023/12/09 05:59:34;;;;;;;0.30;0.20;;;1.80;99.90;;;;;;5071144;28;20328;-71
2023/12/09 06:02:00;;;;;;;0.30;0.20;;;1.90;99.90;;;;;;5070861;28;20678;-74
2023/12/09 06:04:25;;;;;;;0.30;0.20;;;1.80;99.90;;;;;;5071021;28;20227;-74
2023/12/09 06:06:51;;;;;;;0.30;0.30;;;1.90;99.90;;;;;;5069856;28;20165;-70
2023/12/09 06:09:17;;;;;;;0.30;0.30;;;1.90;99.90;;;;;;5070877;28;20197;-74
2023/12/09 06:11:42;;;;;;;0.30;0.30;;;1.90;99.90;;;;;;5070540;28;20176;-74
2023/12/09 06:14:08;;;;;;;0.30;0.30;;;1.90;99.90;;;;;;5070951;28;20284;-70
2023/12/09 06:16:34;;;;;;;0.30;0.20;;;1.90;99.90;;;;;;5070521;28;20228;-70
2023/12/09 06:18:59;;;;;;;0.30;0.20;;;1.90;99.90;;;;;;5069058;28;20566;-70
2023/12/09 06:21:25;;;;;;;0.30;0.30;;;1.90;99.90;;;;;;5069234;28;20170;-70
2023/12/09 06:23:52;;;;;;;0.30;0.20;;;1.90;99.90;;;;;;5068511;28;20733;-74
2023/12/09 06:26:18;;;;;;;0.30;0.30;;;1.90;99.90;;;;;;5068452;28;20201;-74
2023/12/09 06:28:44;;;;;;;0.30;0.20;;;1.90;99.90;;;;;;5070771;28;20201;-70
2023/12/09 06:31:12;;;;;;;0.30;0.20;;;2.00;99.90;;;;;;5070460;28;20666;-73
2023/12/09 06:33:38;;;;;;;0.30;0.30;;;1.90;99.90;;;;;;5070254;28;20220;-74
2023/12/09 06:36:05;;;;;;;0.30;0.20;;;1.90;99.90;;;;;;5068649;28;20181;-75
2023/12/09 06:38:33;;;;;;;0.30;0.30;;;1.90;99.90;;;;;;5070629;28;20770;-74
2023/12/09 06:40:59;;;;;;;0.30;0.20;;;1.90;99.90;;;;;;5068922;28;20193;-74
2023/12/09 06:43:24;;;;;;;0.30;0.30;;;1.90;99.90;;;;;;5070603;28;20694;-73
2023/12/09 06:45:50;;;;;;;0.30;0.20;;;1.90;99.90;;;;;;5068076;28;20546;-74
2023/12/09 06:48:15;;;;;;;0.30;0.20;;;2.00;99.90;;;;;;5070419;28;20641;-70
2023/12/09 06:50:42;;;;;;;0.30;0.20;;;2.00;99.90;;;;;;5069716;28;20611;-70
2023/12/09 06:53:12;;;;;;;0.30;0.20;;;2.00;99.90;;;;;;5070399;28;20665;-70
2023/12/09 06:55:37;;;;;;;0.30;0.20;;;2.00;99.90;;;;;;5070054;28;20173;-74
2023/12/09 06:58:03;;;;;;;0.30;0.20;;;2.00;99.90;;;;;;5068630;28;20278;-74
2023/12/09 07:00:28;;;;;;;0.30;0.20;;;2.00;99.90;;;;;;5068517;28;20169;-74
2023/12/09 07:02:54;;;;;;;0.30;0.20;;;2.00;99.90;;;;;;5069997;28;20224;-74
2023/12/09 07:05:20;;;;;;;0.30;0.20;;;2.00;99.90;;;;;;5069765;28;20539;-74
2023/12/09 07:07:48;;;;;;;0.30;0.30;;;2.00;99.90;;;;;;5068825;28;20169;-73
2023/12/09 07:10:14;;;;;;;0.30;0.20;;;2.00;99.90;;;;;;5070051;28;20738;-74
2023/12/09 07:12:39;;;;;;;0.30;0.20;;;2.00;99.90;;;;;;5069989;28;20173;-70
2023/12/09 07:15:06;;;;;;;0.30;0.20;;;2.10;99.90;;;;;;5069581;28;20174;-70
2023/12/09 07:17:31;;;;;;;0.30;0.20;;;2.10;99.90;;;;;;5069496;28;20236;-71
2023/12/09 07:19:59;;;;;;;0.30;0.20;;;2.10;99.90;;;;;;5068210;28;20267;-70
2023/12/09 07:22:25;;;;;;;0.30;0.20;;;2.10;99.90;;;;;;5068329;28;20196;-74
2023/12/09 07:24:50;;;;;;;0.30;0.20;;;2.10;99.90;;;;;;5068636;28;20197;-73
2023/12/09 07:27:16;;;;;;;0.30;0.20;;;2.10;99.90;;;;;;5069835;28;20177;-71
2023/12/09 07:29:41;;;;;;;0.30;0.20;;;2.10;99.90;;;;;;5069312;28;20222;-70
2023/12/09 07:32:07;;;;;;;0.30;0.20;;;2.20;99.90;;;;;;5075531;28;20186;-70
2023/12/09 07:34:33;;;;;;;0.30;0.20;;;2.20;99.90;;;;;;5087369;28;20448;-75
2023/12/09 07:36:58;;;;;;;0.30;0.20;;;2.20;99.90;;;;;;5087929;28;20637;-74
2023/12/09 07:39:24;;;;;;;0.30;0.20;;;2.20;99.90;;;;;;5090092;28;20219;-71
2023/12/09 07:41:51;;;;;;;0.30;0.20;;;2.20;99.90;;;;;;5089548;28;20169;-70
2023/12/09 07:44:20;;;;;;;0.30;0.20;;;2.30;99.90;;;;;;5089387;28;20216;-70
2023/12/09 07:46:46;;;;;;;0.30;0.20;;;2.30;99.90;;;;;;5089346;28;20165;-74
2023/12/09 07:49:12;;;;;;;0.30;0.20;;;2.30;99.90;;;;;;5089453;28;20215;-71
2023/12/09 07:51:38;;;;;;;0.30;0.20;;;2.30;99.90;;;;;;5088080;28;20597;-70
2023/12/09 07:54:04;;;;;;;0.30;0.20;;;2.30;99.90;;;;;;5087866;28;20200;-75
2023/12/09 07:56:30;;;;;;;0.30;0.20;;;2.40;99.90;;;;;;5086344;28;20452;-70
2023/12/09 07:58:56;;;;;;;0.30;0.20;;;2.40;99.90;;;;;;5093385;28;20820;-70
2023/12/09 08:01:22;;;;;;;0.30;0.20;;;2.40;99.90;;;;;;5091700;28;20195;-70
2023/12/09 08:03:48;;;;;;;0.30;0.20;;;2.40;99.90;;;;;;5092819;28;20565;-70
2023/12/09 08:06:14;;;;;;;0.30;0.20;;;2.40;99.90;;;;;;5108525;28;20187;-70
2023/12/09 08:08:39;;;;;;;0.30;0.20;;;2.30;99.90;;;;;;5092987;28;20712;-71
2023/12/09 08:11:05;;;;;;;0.30;0.20;;;2.40;99.90;;;;;;5092133;28;20188;-74
2023/12/09 08:13:31;;;;;;;0.30;0.20;;;2.40;99.90;;;;;;5093087;28;20228;-74
2023/12/09 08:15:57;;;;;;;0.30;0.20;;;2.30;99.90;;;;;;5092342;28;20187;-70
2023/12/09 08:18:23;;;;;;;0.30;0.20;;;2.30;99.90;;;;;;5093915;28;20690;-74
2023/12/09 08:20:49;;;;;;;0.30;0.20;;;2.30;99.90;;;;;;5091445;28;20176;-74
2023/12/09 08:23:14;;;;;;;0.30;0.20;;;2.30;99.90;;;;;;5092687;28;20841;-70
2023/12/09 08:25:43;;;;;;;0.30;0.20;;;2.40;99.90;;;;;;5091435;28;20286;-74
2023/12/09 08:28:09;;;;;;;0.30;0.20;;;2.40;99.90;;;;;;5108698;28;20295;-70
2023/12/09 08:30:35;;;;;;;0.30;0.30;;;2.40;99.90;;;;;;5091618;28;20180;-70
2023/12/09 08:33:01;;;;;;;0.30;0.20;;;2.40;99.90;;;;;;5092497;28;20193;-70
2023/12/09 08:35:26;;;;;;;0.30;0.20;;;2.40;99.90;;;;;;5092609;28;20180;-71
2023/12/09 08:37:52;;;;;;;0.30;0.20;;;2.40;99.90;;;;;;5103124;28;20227;-70
2023/12/09 08:40:17;;;;;;;0.30;0.20;;;2.50;99.90;;;;;;5090613;28;20603;-75
2023/12/09 08:42:45;;;;;;;0.30;0.20;;;2.50;99.90;;;;;;5092078;28;20204;-75
2023/12/09 08:45:13;;;;;;;0.30;0.30;;;2.50;99.90;;;;;;5090163;28;20711;-70
2023/12/09 08:47:39;;;;;;;0.30;0.20;;;2.50;99.90;;;;;;5090960;28;20579;-74
2023/12/09 08:50:08;;;;;;;0.30;0.20;;;2.50;99.90;;;;;;5089311;28;20551;-74
2023/12/09 08:52:34;;;;;;;0.50;0.30;;;2.60;99.90;;;;;;5092570;28;20280;-74
2023/12/09 08:55:00;;;;;;;0.30;0.20;;;2.60;99.90;;;;;;5090273;28;20210;-74
2023/12/09 08:57:26;;;;;;;0.30;0.20;;;2.60;99.90;;;;;;5091101;28;20177;-74
2023/12/09 08:59:52;;;;;;;0.30;0.20;;;2.60;99.90;;;;;;5089012;28;20499;-73
2023/12/09 09:02:18;;;;;;;0.30;0.20;;;2.60;99.90;;;;;;5087923;28;20192;-71
2023/12/09 09:04:44;;;;;;;0.30;0.20;;;2.60;99.90;;;;;;5089701;28;20459;-75
2023/12/09 09:07:09;;;;;;;11.40;10.77;;;2.60;99.90;;;;;;5087572;28;20498;-71
2023/12/09 09:09:37;;;;;;;0.40;0.40;;;2.60;99.90;;;;;;5087316;28;20212;-71
2023/12/09 09:12:03;;;;;;;0.30;0.20;;;2.60;99.90;;;;;;5088595;28;20199;-74
2023/12/09 09:14:29;;;;;;;0.30;0.20;;;2.60;99.90;;;;;;5098356;28;20197;-71
2023/12/09 09:16:54;;;;;;;0.30;0.20;;;2.60;99.90;;;;;;5089353;28;20235;-74
2023/12/09 09:19:21;;;;;;;0.30;0.20;;;2.60;99.90;;;;;;5088905;28;20212;-75
2023/12/09 09:21:46;;;;;;;0.30;0.20;;;2.70;99.90;;;;;;5091412;28;20669;-74
2023/12/09 09:24:12;;;;;;;0.30;0.20;;;2.70;99.90;;;;;;5090680;28;20220;-71
2023/12/09 09:26:38;;;;;;;0.30;0.20;;;2.70;99.90;;;;;;5087188;28;20172;-71
2023/12/09 09:29:04;;;;;;;0.30;0.20;;;2.70;99.90;;;;;;5088358;28;20754;-75
2023/12/09 09:31:30;;;;;;;0.30;0.20;;;2.70;99.90;;;;;;5090865;28;20184;-74
2023/12/09 09:33:55;;;;;;;0.30;0.20;;;2.70;99.90;;;;;;5089992;28;20287;-71
2023/12/09 09:36:22;;;;;;;0.30;0.20;;;2.70;99.90;;;;;;5091286;28;20926;-75
2023/12/09 09:38:49;;;;;;;0.30;0.20;;;2.70;99.90;;;;;;5090089;28;20293;-71
2023/12/09 09:41:22;;;;;;;0.30;0.20;;;2.70;99.90;;;;;;5089706;28;20189;-71
2023/12/09 09:43:58;;;;;;;0.30;0.20;;;2.80;99.90;;;;;;5090353;28;20411;-71
2023/12/09 09:46:25;;;;;;;0.30;0.20;;;2.80;99.90;;;;;;5089116;28;20249;-75
2023/12/09 09:48:52;;;;;;;0.30;0.30;;;2.80;99.90;;;;;;5091181;28;20673;-76
2023/12/09 09:51:26;;;;;;;0.30;0.20;;;2.80;99.90;;;;;;5070423;28;20181;-71
2023/12/09 09:54:05;;;;;;;0.30;0.20;;;2.90;99.90;;;;;;5091432;28;20196;-71
2023/12/09 09:56:31;;;;;;;0.30;0.20;;;2.90;99.90;;;;;;5091081;28;20263;-71
2023/12/09 09:58:57;;;;;;;0.30;0.20;;;2.90;99.90;;;;;;5090390;28;20200;-73
2023/12/09 10:01:25;;;;;;;0.30;0.20;;;2.90;99.90;;;;;;5090404;28;20179;-71
2023/12/09 10:03:51;;;;;;;0.30;0.20;;;2.90;99.90;;;;;;5090712;28;20476;-75
2023/12/09 10:06:18;;;;;;;0.30;0.20;;;2.80;99.90;;;;;;5088508;28;20180;-71
2023/12/09 10:08:44;;;;;;;0.30;0.20;;;2.80;99.90;;;;;;5090339;28;20298;-74
2023/12/09 10:11:10;;;;;;;0.30;0.20;;;2.80;99.90;;;;;;5089925;28;20173;-75
2023/12/09 10:13:35;;;;;;;0.30;0.20;;;2.80;99.90;;;;;;5090731;28;20212;-71
2023/12/09 10:16:01;;;;;;;0.30;0.20;;;2.80;99.90;;;;;;5090307;28;20657;-71
2023/12/09 10:18:26;;;;;;;0.30;0.20;;;2.90;99.90;;;;;;5091412;28;20672;-71
2023/12/09 10:20:52;;;;;;;0.30;0.20;;;2.90;99.90;;;;;;5089001;28;20267;-74
2023/12/09 10:23:19;;;;;;;0.30;0.20;;;2.90;99.90;;;;;;5090305;28;20219;-74
2023/12/09 10:25:46;;;;;;;0.30;0.20;;;3.00;99.90;;;;;;5090255;28;20226;-74
2023/12/09 10:28:13;;;;;;;0.30;0.20;;;2.90;99.90;;;;;;5089785;28;20262;-75
2023/12/09 10:30:41;;;;;;;0.30;0.20;;;2.90;99.90;;;;;;5088636;28;20180;-71
2023/12/09 10:33:08;;;;;;;0.30;0.20;;;3.00;99.90;;;;;;5088902;28;20209;-73
2023/12/09 10:35:34;;;;;;;0.30;0.20;;;3.00;99.90;;;;;;5088739;28;20172;-74
2023/12/09 10:38:01;;;;;;;0.30;0.30;;;3.00;99.90;;;;;;5090264;28;20764;-70
2023/12/09 10:40:27;;;;;;;0.30;0.20;;;3.00;99.90;;;;;;5089393;28;20176;-74
2023/12/09 10:42:52;;;;;;;0.30;0.20;;;3.00;99.90;;;;;;5095689;28;20757;-71
2023/12/09 10:45:18;;;;;;;1.00;1.00;;;3.00;99.90;;;;;;5086687;28;20188;-75
2023/12/09 10:47:44;;;;;;;0.30;0.20;;;3.10;99.90;;;;;;5088748;28;20180;-71
2023/12/09 10:50:10;;;;;;;0.30;0.20;;;3.00;99.90;;;;;;5088965;28;20664;-70
2023/12/09 10:52:36;;;;;;;0.30;0.20;;;3.00;99.90;;;;;;5086888;28;20324;-70
2023/12/09 10:55:01;;;;;;;0.30;0.20;;;3.00;99.90;;;;;;5089777;28;20183;-74
2023/12/09 10:57:28;;;;;;;0.30;0.20;;;3.00;99.90;;;;;;5087001;28;20197;-74
2023/12/09 10:59:55;;;;;;;0.30;0.20;;;3.10;99.90;;;;;;5086232;28;20205;-74
2023/12/09 11:02:21;;;;;;;0.30;0.20;;;3.10;99.90;;;;;;5088199;28;20192;-74
2023/12/09 11:04:49;;;;;;;0.30;0.20;;;3.10;99.90;;;;;;5088127;28;20219;-75
2023/12/09 11:07:16;;;;;;;0.30;0.20;;;3.10;99.90;;;;;;5087225;28;20267;-75
2023/12/09 11:09:42;;;;;;;0.30;0.20;;;3.10;99.90;;;;;;5087386;28;20196;-70
2023/12/09 11:12:08;;;;;;;0.30;0.20;;;3.10;99.90;;;;;;5088189;28;20633;-71
2023/12/09 11:14:34;;;;;;;0.30;0.20;;;3.10;99.90;;;;;;5086395;28;20192;-75
2023/12/09 11:17:01;;;;;;;0.30;0.20;;;3.10;99.90;;;;;;5084824;28;20683;-74
2023/12/09 11:19:27;;;;;;;0.30;0.20;;;3.10;99.90;;;;;;5085831;28;20246;-74
2023/12/09 11:21:53;;;;;;;0.30;0.20;;;3.10;99.90;;;;;;5086578;28;20172;-74
2023/12/09 11:24:19;;;;;;;0.30;0.20;;;3.10;99.90;;;;;;5086807;28;20277;-70
2023/12/09 11:26:45;;;;;;;0.30;0.20;;;3.10;99.90;;;;;;5087331;28;20203;-70
2023/12/09 11:29:12;;;;;;;0.30;0.20;;;3.10;99.90;;;;;;5088560;28;20227;-75
2023/12/09 11:31:39;;;;;;;0.30;0.20;;;3.10;99.90;;;;;;5088368;28;20218;-75
2023/12/09 11:34:06;;;;;;;0.30;0.20;;;3.10;99.90;;;;;;5089293;28;20212;-74
2023/12/09 11:36:36;;;;;;;0.30;0.20;;;3.10;99.90;;;;;;5089342;28;20587;-70
2023/12/09 11:39:19;;;;;;;0.30;0.20;;;3.10;99.90;;;;;;5088369;28;20232;-74
2023/12/09 11:41:46;;;;;;;0.30;0.30;;;3.10;99.90;;;;;;5088913;28;20660;-75
2023/12/09 11:44:13;;;;;;;0.30;0.20;;;3.10;99.90;;;;;;5087445;28;20757;-75
2023/12/09 11:46:39;;;;;;;0.30;0.20;;;3.10;99.90;;;;;;5088371;28;20564;-71
2023/12/09 11:49:06;;;;;;;0.30;0.20;;;3.20;99.90;;;;;;5089661;28;20295;-74
2023/12/09 11:51:36;;;;;;;0.30;0.20;;;3.20;99.90;;;;;;5087985;28;20410;-70
2023/12/09 11:54:07;;;;;;;0.50;0.50;;;3.20;99.90;;;;;;5089453;28;20215;-70
2023/12/09 11:56:33;;;;;;;0.30;0.20;;;3.20;99.90;;;;;;5089479;28;20157;-71
2023/12/09 11:58:59;;;;;;;0.30;0.20;;;3.20;99.90;;;;;;5089776;28;20303;-74
2023/12/09 12:01:27;;;;;;;0.30;0.20;;;3.20;99.90;;;;;;5088725;28;20624;-75
2023/12/09 12:03:53;;;;;;;0.30;0.20;;;3.20;99.90;;;;;;5087889;28;20251;-74
2023/12/09 12:06:21;;;;;;;0.30;0.20;;;3.10;99.90;;;;;;5089021;28;20212;-75
2023/12/09 12:08:49;;;;;;;0.30;0.20;;;3.10;99.90;;;;;;5089504;28;20224;-71
2023/12/09 12:11:17;;;;;;;0.30;0.20;;;3.10;99.90;;;;;;5083976;28;20184;-72
2023/12/09 12:13:43;;;;;;;0.30;0.20;;;3.10;99.90;;;;;;5085033;28;20313;-74
2023/12/09 12:16:09;;;;;;;0.30;0.20;;;3.20;99.90;;;;;;5088226;28;20394;-70
2023/12/09 12:18:35;;;;;;;0.30;0.20;;;3.20;99.90;;;;;;5087646;28;20223;-74
2023/12/09 12:21:03;;;;;;;0.30;0.20;;;3.20;99.90;;;;;;5089183;28;20656;-70
2023/12/09 12:23:29;;;;;;;0.30;0.20;;;3.20;99.90;;;;;;5089177;28;20219;-70
2023/12/09 12:25:55;;;;;;;0.30;0.20;;;3.20;99.90;;;;;;5087901;28;20181;-74
2023/12/09 12:28:22;;;;;;;0.30;0.20;;;3.20;99.90;;;;;;5089606;28;20736;-70
2023/12/09 12:31:06;;;;;;;0.30;0.20;;;3.20;99.90;;;;;;5086942;28;20184;-74
2023/12/09 12:33:32;;;;;;;0.30;0.20;;;3.20;99.90;;;;;;5089654;28;20197;-74
2023/12/09 12:35:58;;;;;;;0.30;0.20;;;3.20;99.90;;;;;;5086581;28;20545;-70
2023/12/09 12:38:26;;;;;;;0.30;0.20;;;3.20;99.90;;;;;;5086575;28;20454;-70
2023/12/09 12:40:54;;;;;;;0.30;0.20;;;3.20;99.90;;;;;;5084085;28;20484;-70
2023/12/09 12:43:20;;;;;;;0.30;0.20;;;3.20;99.90;;;;;;5089898;28;20685;-74
2023/12/09 12:45:48;;;;;;;0.30;0.20;;;3.30;99.90;;;;;;5092636;28;20196;-74
2023/12/09 12:48:14;;;;;;;0.30;0.20;;;3.30;99.90;;;;;;5091946;28;20669;-74
2023/12/09 12:50:40;;;;;;;0.30;0.20;;;3.30;99.90;;;;;;5092972;28;20196;-71
2023/12/09 12:53:06;;;;;;;0.30;0.20;;;3.30;99.90;;;;;;5091259;28;20823;-70